Time;durP1;ratioP1;P1;durP2;ratioP2;P2;SDS_P1;SDS_P2;PMS_P1;PMS_P2;Temp;Humidity;BMP_temperature;BMP_pressure;BME280_temperature;BME280_humidity;BME280_pressure;Samples;Min_cycle;Max_cycle;Signal;HPM_P1;HPM_P2
2023/04/06 00:01:07;;;;;;;9.95;6.18;;;2.80;99.90;;;;;;5014402;28;20057;-70
2023/04/06 00:03:33;;;;;;;13.10;7.15;;;2.80;99.90;;;;;;4997580;28;20038;-70
2023/04/06 00:05:58;;;;;;;9.52;6.50;;;2.80;99.90;;;;;;5014679;28;20072;-70
2023/04/06 00:08:25;;;;;;;10.25;7.00;;;2.80;99.90;;;;;;5031530;28;20103;-70
2023/04/06 00:10:51;;;;;;;11.13;7.68;;;2.70;99.90;;;;;;5031454;28;20053;-70
2023/04/06 00:13:16;;;;;;;10.48;6.88;;;2.70;99.90;;;;;;5031499;28;20372;-70
2023/04/06 00:15:42;;;;;;;11.95;6.35;;;2.60;99.90;;;;;;5014740;28;20059;-70
2023/04/06 00:18:08;;;;;;;13.35;6.95;;;2.60;99.90;;;;;;5013239;28;20437;-70
2023/04/06 00:20:33;;;;;;;10.65;7.47;;;2.70;99.90;;;;;;5014493;28;20041;-71
2023/04/06 00:22:59;;;;;;;12.80;7.00;;;2.60;99.90;;;;;;5032058;28;20099;-70
2023/04/06 00:25:25;;;;;;;10.80;6.50;;;2.60;99.90;;;;;;4996976;28;20037;-70
2023/04/06 00:27:51;;;;;;;9.00;5.93;;;2.60;99.90;;;;;;5032075;28;20038;-70
2023/04/06 00:30:17;;;;;;;12.82;6.55;;;2.60;99.90;;;;;;4997761;28;20041;-70
2023/04/06 00:32:42;;;;;;;11.18;7.18;;;2.50;99.90;;;;;;5013500;28;20076;-70
2023/04/06 00:35:08;;;;;;;10.57;6.55;;;2.50;99.90;;;;;;5014099;28;20092;-70
2023/04/06 00:37:34;;;;;;;12.35;6.57;;;2.50;99.90;;;;;;5017056;28;20154;-70
2023/04/06 00:40:00;;;;;;;10.88;6.85;;;2.50;99.90;;;;;;5035347;28;20482;-70
2023/04/06 00:42:26;;;;;;;9.82;5.85;;;2.50;99.90;;;;;;5001694;28;20038;-70
2023/04/06 00:45:00;;;;;;;13.40;6.65;;;2.40;99.90;;;;;;5001296;28;20107;-70
2023/04/06 00:47:26;;;;;;;11.20;6.22;;;2.40;99.90;;;;;;5017818;28;20060;-70
2023/04/06 00:49:53;;;;;;;10.18;6.35;;;2.40;99.90;;;;;;5001724;28;20052;-70
2023/04/06 00:52:19;;;;;;;10.93;6.72;;;2.40;99.90;;;;;;5016643;28;20107;-70
2023/04/06 00:54:45;;;;;;;11.70;6.20;;;2.40;99.90;;;;;;5002000;28;20037;-70
2023/04/06 00:57:14;;;;;;;9.98;6.47;;;2.40;99.90;;;;;;5017593;28;20042;-70
2023/04/06 00:59:40;;;;;;;9.65;5.35;;;2.40;99.90;;;;;;5000779;28;20103;-70
2023/04/06 01:02:07;;;;;;;10.25;5.80;;;2.40;99.90;;;;;;5035398;28;20055;-70
2023/04/06 01:04:34;;;;;;;9.82;5.63;;;2.30;99.90;;;;;;5035219;28;20430;-70
2023/04/06 01:06:59;;;;;;;10.55;6.47;;;2.30;99.90;;;;;;5035605;28;20085;-70
2023/04/06 01:09:28;;;;;;;11.25;6.35;;;2.30;99.90;;;;;;5017481;28;20089;-70
2023/04/06 01:11:55;;;;;;;10.60;5.90;;;2.30;99.90;;;;;;5017699;28;20038;-70
2023/04/06 01:14:21;;;;;;;9.07;5.82;;;2.30;99.90;;;;;;5016107;28;20045;-70
2023/04/06 01:16:46;;;;;;;8.60;5.72;;;2.30;99.90;;;;;;5001205;28;20045;-70
2023/04/06 01:19:13;;;;;;;9.80;6.05;;;2.30;99.90;;;;;;5000967;28;20129;-70
2023/04/06 01:21:40;;;;;;;9.18;5.28;;;2.30;99.90;;;;;;5034172;28;20049;-70
2023/04/06 01:24:07;;;;;;;9.30;5.40;;;2.30;99.90;;;;;;5035231;28;20114;-70
2023/04/06 01:26:33;;;;;;;9.95;5.57;;;2.30;99.90;;;;;;5000795;28;20470;-70
2023/04/06 01:28:59;;;;;;;10.68;5.75;;;2.20;99.90;;;;;;5000353;28;20091;-70
2023/04/06 01:31:26;;;;;;;9.25;5.72;;;2.20;99.90;;;;;;5016960;28;20091;-70
2023/04/06 01:33:52;;;;;;;8.10;5.07;;;2.20;99.90;;;;;;5037035;28;20193;-70
2023/04/06 01:36:18;;;;;;;9.18;5.80;;;2.20;99.90;;;;;;5036024;28;20545;-70
2023/04/06 01:38:44;;;;;;;10.55;6.20;;;2.20;99.90;;;;;;5054308;28;20067;-70
2023/04/06 01:41:10;;;;;;;8.55;6.13;;;2.20;99.90;;;;;;5035836;28;20486;-70
2023/04/06 01:43:36;;;;;;;8.65;5.65;;;2.20;99.90;;;;;;5017875;28;20041;-70
2023/04/06 01:46:01;;;;;;;8.50;5.63;;;2.20;99.90;;;;;;5016922;28;20038;-71
2023/04/06 01:48:27;;;;;;;8.63;5.53;;;2.20;99.90;;;;;;5015912;28;20103;-70
2023/04/06 01:50:54;;;;;;;10.10;6.03;;;2.20;99.90;;;;;;5017051;28;20405;-70
2023/04/06 01:53:19;;;;;;;9.23;5.30;;;2.20;99.90;;;;;;4999869;28;20041;-70
2023/04/06 01:55:45;;;;;;;7.68;5.57;;;2.20;99.90;;;;;;5002787;28;20382;-70
2023/04/06 01:58:11;;;;;;;10.40;5.85;;;2.20;99.90;;;;;;5024896;28;20075;-70
2023/04/06 02:00:37;;;;;;;9.45;6.18;;;2.20;99.90;;;;;;5036447;28;20045;-70
2023/04/06 02:03:02;;;;;;;9.00;6.00;;;2.20;99.90;;;;;;5030889;28;20032;-70
2023/04/06 02:05:30;;;;;;;9.07;5.70;;;2.20;99.90;;;;;;5009400;28;20037;-70
2023/04/06 02:07:56;;;;;;;9.82;5.38;;;2.20;99.90;;;;;;5017456;28;20049;-71
2023/04/06 02:10:22;;;;;;;8.75;5.05;;;2.20;99.90;;;;;;5027267;28;20102;-70
2023/04/06 02:12:48;;;;;;;8.88;5.43;;;2.10;99.90;;;;;;5016580;28;20037;-70
2023/04/06 02:15:13;;;;;;;9.32;5.95;;;2.10;99.90;;;;;;5034014;28;20108;-70
2023/04/06 02:17:40;;;;;;;8.27;5.43;;;2.10;99.90;;;;;;5008507;28;20426;-70
2023/04/06 02:20:06;;;;;;;7.97;5.38;;;2.10;99.90;;;;;;5023054;28;20037;-70
2023/04/06 02:22:32;;;;;;;9.25;5.80;;;2.10;99.90;;;;;;5016052;28;20057;-70
2023/04/06 02:24:58;;;;;;;10.85;5.97;;;2.00;99.90;;;;;;5042329;28;20028;-70
2023/04/06 02:27:23;;;;;;;8.57;5.55;;;2.00;99.90;;;;;;5018703;28;20421;-70
2023/04/06 02:29:49;;;;;;;10.55;6.47;;;2.00;99.90;;;;;;5019591;28;20047;-70
2023/04/06 02:32:15;;;;;;;10.20;5.80;;;2.00;99.90;;;;;;5034749;28;20132;-70
2023/04/06 02:34:40;;;;;;;11.02;6.38;;;2.00;99.90;;;;;;5035973;28;20044;-70
2023/04/06 02:37:06;;;;;;;10.40;6.25;;;2.00;99.90;;;;;;5053342;28;20055;-70
2023/04/06 02:39:31;;;;;;;8.77;5.68;;;2.00;99.90;;;;;;5025882;28;20042;-71
2023/04/06 02:41:57;;;;;;;9.88;5.70;;;1.90;99.90;;;;;;5016221;28;20037;-70
2023/04/06 02:44:23;;;;;;;9.25;5.75;;;2.00;99.90;;;;;;5014753;28;20378;-70
2023/04/06 02:46:49;;;;;;;10.52;6.10;;;2.00;99.90;;;;;;5033765;28;20453;-70
2023/04/06 02:49:15;;;;;;;8.85;6.13;;;1.90;99.90;;;;;;5015555;28;20038;-71
2023/04/06 02:51:40;;;;;;;10.23;6.45;;;1.90;99.90;;;;;;5015269;28;20052;-70
2023/04/06 02:54:06;;;;;;;8.40;6.05;;;1.90;99.90;;;;;;5051739;28;20045;-70
2023/04/06 02:56:32;;;;;;;10.93;6.15;;;1.90;99.90;;;;;;5035238;28;20056;-70
2023/04/06 02:58:57;;;;;;;8.25;5.72;;;1.80;99.90;;;;;;5034293;28;20041;-70
2023/04/06 03:01:23;;;;;;;9.10;5.97;;;1.90;99.90;;;;;;5018233;28;20123;-70
2023/04/06 03:03:49;;;;;;;9.65;6.65;;;1.80;99.90;;;;;;5035488;28;20094;-70
2023/04/06 03:06:14;;;;;;;9.05;5.43;;;1.80;99.90;;;;;;5006041;28;20040;-70
2023/04/06 03:08:40;;;;;;;9.00;6.22;;;1.80;99.90;;;;;;4998973;28;20049;-70
2023/04/06 03:11:06;;;;;;;9.68;5.85;;;1.80;99.90;;;;;;5015215;28;20482;-70
2023/04/06 03:13:31;;;;;;;9.07;6.18;;;1.80;99.90;;;;;;5014565;28;20056;-70
2023/04/06 03:15:57;;;;;;;10.27;5.95;;;1.70;99.90;;;;;;5015540;28;20410;-70
2023/04/06 03:18:24;;;;;;;9.32;6.07;;;1.80;99.90;;;;;;5014788;28;20118;-70
2023/04/06 03:20:50;;;;;;;13.02;6.28;;;1.80;99.90;;;;;;4998329;28;20449;-70
2023/04/06 03:23:16;;;;;;;9.18;5.68;;;1.80;99.90;;;;;;5014595;28;20042;-70
2023/04/06 03:25:41;;;;;;;12.70;6.05;;;1.80;99.90;;;;;;5015201;28;20084;-70
2023/04/06 03:28:07;;;;;;;9.60;5.65;;;1.80;99.90;;;;;;5031885;28;20048;-70
2023/04/06 03:30:34;;;;;;;8.63;6.60;;;1.80;99.90;;;;;;5014871;28;20037;-70
2023/04/06 03:33:00;;;;;;;8.90;5.78;;;1.80;99.90;;;;;;5023328;28;20072;-70
2023/04/06 03:35:25;;;;;;;11.55;5.55;;;1.80;99.90;;;;;;5051594;28;20536;-70
2023/04/06 03:37:51;;;;;;;8.48;5.57;;;1.80;99.90;;;;;;5034864;28;20047;-70
2023/04/06 03:40:17;;;;;;;7.97;5.38;;;1.80;99.90;;;;;;5052053;28;20033;-70
2023/04/06 03:42:42;;;;;;;8.75;5.38;;;1.80;99.90;;;;;;5051412;28;20132;-70
2023/04/06 03:45:09;;;;;;;7.78;5.60;;;1.80;99.90;;;;;;5034337;28;20099;-70
2023/04/06 03:47:34;;;;;;;9.80;5.80;;;1.80;99.90;;;;;;5051473;28;20037;-70
2023/04/06 03:50:00;;;;;;;8.85;5.82;;;1.70;99.90;;;;;;5034496;28;20049;-70
2023/04/06 03:52:26;;;;;;;9.13;5.22;;;1.70;99.90;;;;;;5034200;28;20037;-70
2023/04/06 03:54:52;;;;;;;8.95;5.32;;;1.70;99.90;;;;;;5033932;28;20056;-70
2023/04/06 03:57:18;;;;;;;8.60;5.78;;;1.60;99.90;;;;;;5051687;28;20037;-70
2023/04/06 03:59:43;;;;;;;8.60;5.53;;;1.70;99.90;;;;;;5034528;28;20037;-70
2023/04/06 04:02:09;;;;;;;10.10;6.85;;;1.60;99.90;;;;;;5050587;28;20048;-70
2023/04/06 04:04:34;;;;;;;10.10;6.40;;;1.60;99.90;;;;;;5034431;28;20047;-70
2023/04/06 04:07:00;;;;;;;9.98;6.55;;;1.60;99.90;;;;;;5034349;28;20086;-70
2023/04/06 04:09:26;;;;;;;14.07;5.57;;;1.60;99.90;;;;;;5033543;28;20085;-70
2023/04/06 04:11:51;;;;;;;9.80;5.55;;;1.60;99.90;;;;;;5033704;28;20037;-70
2023/04/06 04:14:17;;;;;;;9.15;6.20;;;1.60;99.90;;;;;;5016926;28;20037;-70
2023/04/06 04:16:43;;;;;;;10.85;6.18;;;1.50;99.90;;;;;;5033233;28;20091;-70
2023/04/06 04:19:08;;;;;;;10.50;6.30;;;1.50;99.90;;;;;;5034035;28;20033;-70
2023/04/06 04:21:45;;;;;;;9.27;5.97;;;1.50;99.90;;;;;;5033792;28;20486;-71
2023/04/06 04:24:11;;;;;;;9.43;5.90;;;1.60;99.90;;;;;;5034350;28;20403;-70
2023/04/06 04:26:37;;;;;;;9.20;5.60;;;1.50;99.90;;;;;;5014111;28;20037;-70
2023/04/06 04:29:03;;;;;;;9.52;6.10;;;1.50;99.90;;;;;;4997750;28;20049;-70
2023/04/06 04:31:29;;;;;;;9.65;6.28;;;1.50;99.90;;;;;;5030820;28;20053;-70
2023/04/06 04:33:55;;;;;;;11.23;6.40;;;1.50;99.90;;;;;;5032296;28;20394;-70
2023/04/06 04:36:20;;;;;;;14.23;6.65;;;1.50;99.90;;;;;;4997436;28;20421;-71
2023/04/06 04:38:46;;;;;;;9.15;6.28;;;1.50;99.90;;;;;;5013162;28;20038;-70
2023/04/06 04:41:12;;;;;;;10.95;6.22;;;1.50;99.90;;;;;;5031812;28;20508;-70
2023/04/06 04:43:38;;;;;;;11.27;6.68;;;1.50;99.90;;;;;;5014004;28;20383;-70
2023/04/06 04:46:04;;;;;;;10.45;5.90;;;1.50;99.90;;;;;;5030976;28;20037;-70
2023/04/06 04:48:30;;;;;;;8.98;5.65;;;1.50;99.90;;;;;;5014355;28;20158;-70
2023/04/06 04:50:56;;;;;;;10.65;6.63;;;1.50;99.90;;;;;;5031252;28;20506;-70
2023/04/06 04:53:22;;;;;;;9.50;6.40;;;1.50;99.90;;;;;;5021262;28;20052;-70
2023/04/06 04:55:47;;;;;;;11.18;6.65;;;1.50;99.90;;;;;;5033965;28;20053;-70
2023/04/06 04:58:16;;;;;;;10.45;6.40;;;1.50;99.90;;;;;;5032699;28;20452;-70
2023/04/06 05:00:46;;;;;;;10.55;6.43;;;1.50;99.90;;;;;;5020540;28;20045;-70
2023/04/06 05:03:21;;;;;;;11.38;6.88;;;1.50;99.90;;;;;;4997572;28;20044;-70
2023/04/06 05:05:46;;;;;;;;;;;1.60;99.90;;;;;;5013672;28;20486;-70
2023/04/06 05:08:12;;;;;;;12.70;7.63;;;1.60;99.90;;;;;;5013554;28;19917;-70
2023/04/06 05:10:38;;;;;;;10.93;6.53;;;1.60;99.90;;;;;;5031488;28;20046;-70
2023/04/06 05:13:04;;;;;;;10.73;6.55;;;1.60;99.90;;;;;;4996634;28;20497;-71
2023/04/06 05:15:30;;;;;;;12.10;7.18;;;1.60;99.90;;;;;;5031233;28;20128;-71
2023/04/06 05:17:55;;;;;;;10.88;6.85;;;1.60;99.90;;;;;;5013837;28;20120;-71
2023/04/06 05:20:21;;;;;;;12.55;7.10;;;1.60;99.90;;;;;;5012543;28;20049;-71
2023/04/06 05:22:47;;;;;;;12.32;7.28;;;1.60;99.90;;;;;;5015487;28;20069;-70
2023/04/06 05:25:13;;;;;;;11.43;8.10;;;1.60;99.90;;;;;;5035128;28;20439;-70
2023/04/06 05:27:39;;;;;;;13.98;7.40;;;1.60;99.90;;;;;;5016381;28;20517;-70
2023/04/06 05:30:07;;;;;;;11.68;7.43;;;1.70;99.90;;;;;;5017246;28;20486;-71
2023/04/06 05:32:32;;;;;;;11.55;7.10;;;1.70;99.90;;;;;;5000760;28;20406;-71
2023/04/06 05:34:58;;;;;;;10.43;6.50;;;1.70;99.90;;;;;;5016425;28;20033;-71
2023/04/06 05:37:24;;;;;;;13.20;8.00;;;1.70;99.90;;;;;;5016673;28;20379;-71
2023/04/06 05:39:49;;;;;;;10.90;6.43;;;1.70;99.90;;;;;;5034931;28;20033;-71
2023/04/06 05:42:15;;;;;;;13.52;6.78;;;1.70;99.90;;;;;;5033558;28;20056;-71
2023/04/06 05:44:41;;;;;;;10.68;6.68;;;1.70;99.90;;;;;;5017019;28;20034;-71
2023/04/06 05:47:06;;;;;;;12.63;7.45;;;1.80;99.90;;;;;;5016136;28;20037;-71
2023/04/06 05:49:32;;;;;;;11.68;7.20;;;1.80;99.90;;;;;;5016745;28;20041;-71
2023/04/06 05:51:58;;;;;;;12.52;7.32;;;1.90;99.90;;;;;;5016944;28;20041;-70
2023/04/06 05:54:24;;;;;;;11.25;7.13;;;1.90;99.90;;;;;;5015874;28;20124;-71
2023/04/06 05:56:49;;;;;;;12.40;6.90;;;1.90;99.90;;;;;;5000538;28;20084;-70
2023/04/06 05:59:15;;;;;;;10.15;6.60;;;2.00;99.90;;;;;;5016396;28;20073;-71
2023/04/06 06:01:40;;;;;;;18.30;7.60;;;2.00;99.90;;;;;;5034034;28;20069;-71
2023/04/06 06:04:06;;;;;;;11.52;6.72;;;2.10;99.90;;;;;;5034336;28;20513;-71
2023/04/06 06:06:32;;;;;;;9.82;6.13;;;2.20;99.90;;;;;;5016232;28;20486;-71
2023/04/06 06:09:02;;;;;;;25.45;8.68;;;2.20;99.90;;;;;;5033473;28;20128;-71
2023/04/06 06:11:28;;;;;;;11.63;6.57;;;2.30;99.90;;;;;;5033259;28;20047;-71
2023/04/06 06:13:53;;;;;;;12.48;7.47;;;2.40;99.90;;;;;;5020150;28;20456;-70
2023/04/06 06:16:19;;;;;;;10.50;6.60;;;2.50;99.90;;;;;;5035059;28;20528;-70
2023/04/06 06:18:45;;;;;;;10.75;7.10;;;2.50;99.90;;;;;;5036098;28;20040;-71
2023/04/06 06:21:14;;;;;;;11.70;6.97;;;2.60;99.90;;;;;;5035588;28;20037;-70
2023/04/06 06:23:41;;;;;;;16.17;8.35;;;2.70;99.90;;;;;;5053216;28;20113;-70
2023/04/06 06:26:07;;;;;;;9.65;6.85;;;2.80;99.90;;;;;;5036092;28;20037;-70
2023/04/06 06:28:33;;;;;;;11.52;7.15;;;2.90;99.90;;;;;;5019475;28;20374;-70
2023/04/06 06:30:58;;;;;;;11.32;7.35;;;3.00;99.90;;;;;;5022100;28;20046;-70
2023/04/06 06:33:25;;;;;;;12.43;6.82;;;3.10;99.90;;;;;;5032859;28;20042;-70
2023/04/06 06:35:51;;;;;;;16.15;7.25;;;3.30;99.90;;;;;;4999510;28;20120;-70
2023/04/06 06:38:17;;;;;;;11.43;7.72;;;3.40;99.90;;;;;;5032320;28;20112;-70
2023/04/06 06:40:43;;;;;;;13.38;7.80;;;3.50;99.90;;;;;;5033709;28;20041;-70
2023/04/06 06:43:08;;;;;;;14.38;7.45;;;3.50;99.90;;;;;;5015806;28;20037;-70
2023/04/06 06:45:34;;;;;;;11.65;6.90;;;3.60;99.90;;;;;;5015146;28;20038;-70
2023/04/06 06:48:00;;;;;;;13.52;7.78;;;3.70;99.90;;;;;;5022310;28;20040;-70
2023/04/06 06:50:26;;;;;;;11.73;7.53;;;3.70;99.90;;;;;;5020492;28;20401;-70
2023/04/06 06:52:52;;;;;;;11.65;7.90;;;3.70;99.90;;;;;;5018883;28;20043;-71
2023/04/06 06:55:19;;;;;;;12.18;7.13;;;3.90;99.90;;;;;;5034965;28;20037;-71
2023/04/06 06:57:46;;;;;;;10.73;7.13;;;4.10;99.90;;;;;;5049274;28;20037;-69
2023/04/06 07:00:13;;;;;;;14.25;8.57;;;4.20;99.90;;;;;;5026071;28;20069;-70
2023/04/06 07:02:39;;;;;;;21.23;7.00;;;4.40;99.90;;;;;;5014237;28;20033;-70
2023/04/06 07:05:05;;;;;;;14.35;7.28;;;4.40;99.90;;;;;;5026500;28;20525;-71
2023/04/06 07:07:32;;;;;;;13.63;6.88;;;4.50;99.90;;;;;;5048315;28;20079;-70
2023/04/06 07:09:58;;;;;;;15.38;7.75;;;4.60;99.90;;;;;;5033156;28;20144;-70
2023/04/06 07:12:23;;;;;;;10.95;6.80;;;4.70;99.90;;;;;;5015250;28;20133;-69
2023/04/06 07:14:49;;;;;;;12.07;7.18;;;4.80;99.90;;;;;;5050034;28;20128;-71
2023/04/06 07:17:15;;;;;;;10.73;6.78;;;4.90;99.90;;;;;;5030943;28;20047;-70
2023/04/06 07:19:40;;;;;;;13.75;6.93;;;5.00;99.90;;;;;;5031423;28;20424;-71
2023/04/06 07:22:06;;;;;;;12.95;7.13;;;5.20;99.90;;;;;;5050544;28;20079;-70
2023/04/06 07:24:32;;;;;;;14.50;6.72;;;5.30;99.90;;;;;;5028752;28;20438;-70
2023/04/06 07:27:00;;;;;;;10.18;6.28;;;5.50;99.90;;;;;;5023084;28;20067;-70
2023/04/06 07:29:26;;;;;;;12.13;7.45;;;5.60;99.90;;;;;;5012633;28;20099;-70
2023/04/06 07:31:51;;;;;;;13.20;8.25;;;5.70;99.90;;;;;;5035942;28;20045;-70
2023/04/06 07:34:17;;;;;;;12.10;7.00;;;5.80;99.90;;;;;;5011437;28;20052;-71
2023/04/06 07:36:43;;;;;;;11.70;7.30;;;5.90;99.90;;;;;;4996909;28;20076;-70
2023/04/06 07:39:09;;;;;;;13.27;7.80;;;5.90;99.90;;;;;;5012291;28;20391;-70
2023/04/06 07:41:34;;;;;;;11.95;8.40;;;6.10;99.90;;;;;;5029667;28;20508;-70
2023/04/06 07:44:00;;;;;;;10.52;6.88;;;6.20;99.90;;;;;;5040542;28;20029;-71
2023/04/06 07:46:25;;;;;;;12.25;7.68;;;6.40;99.90;;;;;;5016880;28;20067;-71
2023/04/06 07:48:51;;;;;;;12.25;7.35;;;6.60;99.90;;;;;;5004171;28;20077;-71
2023/04/06 07:51:17;;;;;;;10.95;6.93;;;6.70;99.90;;;;;;5037779;28;20478;-70
2023/04/06 07:53:44;;;;;;;10.50;6.75;;;6.90;99.90;;;;;;5017057;28;20041;-70
2023/04/06 07:56:10;;;;;;;12.90;6.72;;;7.10;99.90;;;;;;5027700;28;20114;-70
2023/04/06 07:58:36;;;;;;;11.20;7.88;;;7.20;99.90;;;;;;5022869;28;20428;-71
2023/04/06 08:01:02;;;;;;;13.73;7.97;;;7.30;99.90;;;;;;5018202;28;20936;-71
2023/04/06 08:03:27;;;;;;;10.00;6.60;;;7.40;99.40;;;;;;5029497;28;20036;-71
2023/04/06 08:05:53;;;;;;;13.05;7.80;;;7.50;98.90;;;;;;5022399;28;20405;-71
2023/04/06 08:08:21;;;;;;;14.20;8.05;;;7.60;98.60;;;;;;4992685;28;20110;-71
2023/04/06 08:10:48;;;;;;;11.80;6.82;;;7.70;98.80;;;;;;5048110;28;20045;-70
2023/04/06 08:13:15;;;;;;;12.80;7.85;;;7.90;98.10;;;;;;5024246;28;20819;-71
2023/04/06 08:15:40;;;;;;;11.95;7.28;;;8.00;97.50;;;;;;5045461;28;20099;-71
2023/04/06 08:18:06;;;;;;;11.43;7.70;;;8.20;97.20;;;;;;5014564;28;20037;-71
2023/04/06 08:20:32;;;;;;;12.48;7.45;;;8.20;96.80;;;;;;5041060;28;20049;-71
2023/04/06 08:22:57;;;;;;;12.20;7.43;;;8.20;95.80;;;;;;5027238;28;20123;-71
2023/04/06 08:25:23;;;;;;;13.45;8.38;;;8.20;95.10;;;;;;5031209;28;20120;-77
2023/04/06 08:27:49;;;;;;;13.50;8.43;;;8.20;94.80;;;;;;5025881;28;20120;-69
2023/04/06 08:30:15;;;;;;;12.88;7.72;;;8.30;94.90;;;;;;5006072;28;20122;-71
2023/04/06 08:32:41;;;;;;;16.63;7.72;;;8.30;94.70;;;;;;5025167;28;20774;-71
2023/04/06 08:35:08;;;;;;;14.05;7.88;;;8.40;94.90;;;;;;5047449;28;20047;-72
2023/04/06 08:37:33;;;;;;;14.82;7.68;;;8.40;94.40;;;;;;5047041;28;20067;-72
2023/04/06 08:39:59;;;;;;;15.02;7.75;;;8.50;94.40;;;;;;5026285;28;20037;-72
2023/04/06 08:42:28;;;;;;;13.30;7.90;;;8.60;94.30;;;;;;5030684;28;20497;-73
2023/04/06 08:44:55;;;;;;;12.38;8.10;;;8.70;93.80;;;;;;5027294;28;20041;-73
2023/04/06 08:47:21;;;;;;;14.48;8.02;;;8.80;93.40;;;;;;5016515;28;20134;-74
2023/04/06 08:49:47;;;;;;;13.93;8.27;;;8.90;93.30;;;;;;5048901;28;20040;-73
2023/04/06 08:52:15;;;;;;;11.52;7.88;;;9.00;92.60;;;;;;5026394;28;20044;-73
2023/04/06 08:54:41;;;;;;;11.20;7.28;;;9.10;92.50;;;;;;5033400;28;20493;-73
2023/04/06 08:57:07;;;;;;;12.23;8.27;;;9.20;92.60;;;;;;5047254;28;20041;-74
2023/04/06 08:59:36;;;;;;;15.32;8.65;;;9.20;92.40;;;;;;5018911;28;20375;-78
2023/04/06 09:02:07;;;;;;;13.80;8.77;;;9.30;92.30;;;;;;5022949;28;20037;-80
2023/04/06 09:04:35;;;;;;;13.35;9.00;;;9.30;91.80;;;;;;5031393;28;20532;-73
2023/04/06 09:07:01;;;;;;;15.82;9.73;;;9.30;91.70;;;;;;5018925;28;20132;-73
2023/04/06 09:09:26;;;;;;;12.20;8.25;;;9.30;91.60;;;;;;5017775;28;20057;-73
2023/04/06 09:11:52;;;;;;;13.80;8.50;;;9.30;91.60;;;;;;5027814;28;20051;-73
2023/04/06 09:14:35;;;;;;;15.68;9.30;;;9.40;91.50;;;;;;5048968;28;20049;-72
2023/04/06 09:17:00;;;;;;;16.10;10.00;;;9.40;90.40;;;;;;5023851;28;20441;-72
2023/04/06 09:19:26;;;;;;;17.25;11.65;;;9.40;91.00;;;;;;5025376;28;20041;-71
2023/04/06 09:22:06;;;;;;;17.75;10.73;;;9.50;90.80;;;;;;5050948;28;20134;-75
2023/04/06 09:24:52;;;;;;;14.05;10.27;;;9.50;88.50;;;;;;5049091;28;20045;-73
2023/04/06 09:27:18;;;;;;;;;;;9.60;89.60;;;;;;5032635;28;20069;-73
2023/04/06 09:29:44;;;;;;;17.08;10.82;;;9.70;90.70;;;;;;5050334;28;19986;-74
2023/04/06 09:32:11;;;;;;;17.08;11.10;;;9.90;90.90;;;;;;5000122;28;20046;-74
2023/04/06 09:34:40;;;;;;;18.52;12.30;;;10.00;90.40;;;;;;5017409;28;20053;-74
2023/04/06 09:37:19;;;;;;;19.63;11.68;;;10.20;90.40;;;;;;5034851;28;20040;-73
2023/04/06 09:39:46;;;;;;;15.95;11.30;;;10.30;90.00;;;;;;5034237;28;20033;-73
2023/04/06 09:42:26;;;;;;;17.45;11.32;;;10.40;89.60;;;;;;5050002;28;20059;-73
2023/04/06 09:44:52;;;;;;;17.13;12.30;;;10.50;88.50;;;;;;5017226;28;20041;-73
2023/04/06 09:47:18;;;;;;;16.95;11.93;;;10.50;89.90;;;;;;5048933;28;20045;-73
2023/04/06 09:49:45;;;;;;;17.30;12.10;;;10.60;89.90;;;;;;5035032;28;20042;-74
2023/04/06 09:52:12;;;;;;;17.25;12.02;;;10.70;90.00;;;;;;5049941;28;20049;-74
2023/04/06 09:54:38;;;;;;;17.92;11.65;;;10.70;88.90;;;;;;5033443;28;20038;-73
2023/04/06 09:57:28;;;;;;;18.02;11.35;;;10.80;87.60;;;;;;5034534;28;20080;-73
2023/04/06 10:00:12;;;;;;;18.70;13.05;;;10.80;85.00;;;;;;5034629;28;20067;-73
2023/04/06 10:03:06;;;;;;;19.95;13.32;;;10.90;86.20;;;;;;5049112;28;20047;-74
2023/04/06 10:05:45;;;;;;;20.20;13.00;;;10.90;83.80;;;;;;5016503;28;20034;-74
2023/04/06 10:08:12;;;;;;;17.45;12.35;;;11.00;83.70;;;;;;5033223;28;20082;-73
2023/04/06 10:10:38;;;;;;;18.33;12.60;;;11.00;82.60;;;;;;5012503;28;20053;-75
2023/04/06 10:13:07;;;;;;;18.98;12.95;;;11.10;82.60;;;;;;5013017;28;20398;-69
2023/04/06 10:15:33;;;;;;;16.42;11.88;;;11.10;82.30;;;;;;5028628;28;20053;-72
2023/04/06 10:18:00;;;;;;;20.42;12.95;;;11.20;82.50;;;;;;5014501;28;20034;-72
2023/04/06 10:20:50;;;;;;;17.88;12.07;;;11.20;82.30;;;;;;4996435;28;20092;-71
2023/04/06 10:23:46;;;;;;;21.08;13.10;;;11.40;80.80;;;;;;5013060;28;20046;-70
2023/04/06 10:26:17;;;;;;;18.33;13.13;;;11.40;80.70;;;;;;4996328;28;20054;-70
2023/04/06 10:28:45;;;;;;;18.88;13.07;;;11.50;81.30;;;;;;5012319;28;20056;-71
2023/04/06 10:31:11;;;;;;;18.75;13.10;;;11.60;80.80;;;;;;5012746;28;20124;-72
2023/04/06 10:33:37;;;;;;;19.23;12.75;;;11.70;80.20;;;;;;5013999;28;20117;-71
2023/04/06 10:36:13;;;;;;;21.25;13.82;;;11.80;80.10;;;;;;5012975;28;20060;-72
2023/04/06 10:38:40;;;;;;;18.23;12.45;;;11.80;79.20;;;;;;5012423;28;20050;-71
2023/04/06 10:41:07;;;;;;;20.80;13.45;;;11.90;80.60;;;;;;5029172;28;20065;-71
2023/04/06 10:43:37;;;;;;;20.15;13.13;;;11.90;80.20;;;;;;5028295;28;20073;-72
2023/04/06 10:46:04;;;;;;;19.30;13.50;;;12.00;80.00;;;;;;5028954;28;20048;-71
2023/04/06 10:48:42;;;;;;;18.90;13.82;;;12.00;80.10;;;;;;5012305;28;20038;-71
2023/04/06 10:51:13;;;;;;;18.45;12.40;;;12.00;77.50;;;;;;5012977;28;20045;-71
2023/04/06 10:53:42;;;;;;;17.45;12.00;;;12.00;77.10;;;;;;5013687;28;20091;-73
2023/04/06 10:56:13;;;;;;;21.35;13.85;;;12.00;76.80;;;;;;5028996;28;20046;-72
2023/04/06 10:58:46;;;;;;;19.45;12.93;;;12.00;77.00;;;;;;4978801;28;20050;-72
2023/04/06 11:01:14;;;;;;;19.63;13.32;;;12.00;76.40;;;;;;5028492;28;20042;-62
2023/04/06 11:03:48;;;;;;;20.73;13.88;;;12.10;76.10;;;;;;5028026;28;20046;-62
2023/04/06 11:06:24;;;;;;;22.52;14.20;;;12.10;75.10;;;;;;4995862;28;20549;-62
2023/04/06 11:08:51;;;;;;;21.95;15.50;;;12.10;74.10;;;;;;5012187;28;20093;-63
2023/04/06 11:11:18;;;;;;;17.95;13.30;;;12.10;75.20;;;;;;5012286;28;20037;-62
2023/04/06 11:13:45;;;;;;;20.35;13.40;;;12.10;74.50;;;;;;5013279;28;20052;-62
2023/04/06 11:16:17;;;;;;;23.67;14.80;;;12.20;74.70;;;;;;5012283;28;20053;-62
2023/04/06 11:19:09;;;;;;;21.50;13.88;;;12.20;74.30;;;;;;5012648;28;20053;-63
2023/04/06 11:21:47;;;;;;;21.58;14.65;;;12.20;74.80;;;;;;4994642;28;20502;-62
2023/04/06 11:24:12;;;;;;;20.42;14.32;;;12.30;75.00;;;;;;5011949;28;20119;-63
2023/04/06 11:26:50;;;;;;;18.88;13.63;;;12.30;74.90;;;;;;5044114;28;20429;-63
2023/04/06 11:29:21;;;;;;;19.85;14.05;;;12.40;75.70;;;;;;5011773;28;20046;-62
2023/04/06 11:31:49;;;;;;;22.67;15.52;;;12.40;74.60;;;;;;5012487;28;20064;-62
2023/04/06 11:34:20;;;;;;;23.60;15.95;;;12.40;74.30;;;;;;5011368;28;20046;-62
2023/04/06 11:36:47;;;;;;;23.10;15.77;;;12.50;74.50;;;;;;5012962;28;20407;-62
2023/04/06 11:39:19;;;;;;;22.67;15.93;;;12.60;74.60;;;;;;5010716;28;20434;-63
2023/04/06 11:41:51;;;;;;;20.58;15.82;;;12.60;74.30;;;;;;5045110;28;20394;-63
2023/04/06 11:44:38;;;;;;;25.33;15.40;;;12.60;74.20;;;;;;5011366;28;20074;-62
2023/04/06 11:47:05;;;;;;;24.73;16.45;;;12.70;74.20;;;;;;5011880;28;20049;-63
2023/04/06 11:49:32;;;;;;;27.05;15.82;;;12.60;75.00;;;;;;5027775;28;20055;-62
2023/04/06 11:51:59;;;;;;;25.55;16.17;;;12.70;76.00;;;;;;5027995;28;20038;-62
2023/04/06 11:54:37;;;;;;;25.25;16.70;;;12.80;77.00;;;;;;5011513;28;20042;-62
2023/04/06 11:57:06;;;;;;;21.65;16.27;;;12.80;75.30;;;;;;5012684;28;20491;-62
2023/04/06 11:59:32;;;;;;;22.63;16.48;;;12.70;76.20;;;;;;5011089;28;20042;-62
2023/04/06 12:01:58;;;;;;;24.40;17.40;;;12.70;75.90;;;;;;5011943;28;20100;-62
2023/04/06 12:04:24;;;;;;;24.35;16.60;;;12.80;76.60;;;;;;5010906;28;20041;-63
2023/04/06 12:06:50;;;;;;;26.92;18.08;;;12.70;77.00;;;;;;5031110;28;20085;-62
2023/04/06 12:09:19;;;;;;;24.58;15.88;;;12.60;76.10;;;;;;5013422;28;20088;-62
2023/04/06 12:11:45;;;;;;;23.58;15.20;;;12.60;76.70;;;;;;5014836;28;20103;-62
2023/04/06 12:14:11;;;;;;;27.45;16.98;;;12.50;77.40;;;;;;5013436;28;20041;-62
2023/04/06 12:16:37;;;;;;;21.33;14.52;;;12.50;78.30;;;;;;5047414;28;20046;-63
2023/04/06 12:19:03;;;;;;;24.05;14.57;;;12.50;78.50;;;;;;5046935;28;20053;-62
2023/04/06 12:21:30;;;;;;;23.23;15.80;;;12.50;78.90;;;;;;5021262;28;20490;-62
2023/04/06 12:23:57;;;;;;;22.90;14.50;;;12.50;77.60;;;;;;5030610;28;20045;-62
2023/04/06 12:26:22;;;;;;;21.55;14.18;;;12.40;77.70;;;;;;5034308;28;20034;-63
2023/04/06 12:28:49;;;;;;;22.95;14.38;;;12.40;78.40;;;;;;5022966;28;20060;-62
2023/04/06 12:31:21;;;;;;;23.92;16.38;;;12.40;78.70;;;;;;5024533;28;20041;-62
2023/04/06 12:33:50;;;;;;;21.95;14.05;;;12.50;77.40;;;;;;5019167;28;20036;-62
2023/04/06 12:36:21;;;;;;;20.83;14.30;;;12.50;78.00;;;;;;5018191;28;20036;-62
2023/04/06 12:38:53;;;;;;;22.88;14.73;;;12.50;77.90;;;;;;5054079;28;20088;-62
2023/04/06 12:41:20;;;;;;;21.90;14.88;;;12.50;78.50;;;;;;5030371;28;20478;-63
2023/04/06 12:43:46;;;;;;;21.08;14.63;;;12.60;78.50;;;;;;5001412;28;20556;-62
2023/04/06 12:46:11;;;;;;;21.48;14.73;;;12.60;78.60;;;;;;5029950;28;20029;-62